createdAt,value
2022-12-23T00:00:46.195Z,8.64
2022-12-23T00:03:12.942Z,8.64
2022-12-23T00:05:43.048Z,8.63
2022-12-23T00:08:09.531Z,8.64
2022-12-23T00:10:44.711Z,8.65
2022-12-23T00:13:33.223Z,8.68
2022-12-23T00:16:08.885Z,8.67
2022-12-23T00:18:35.849Z,8.71
2022-12-23T00:21:09.175Z,8.74
2022-12-23T00:23:38.512Z,8.77
2022-12-23T00:26:05.846Z,8.76
2022-12-23T00:28:37.531Z,8.75
2022-12-23T00:31:09.651Z,8.74
2022-12-23T00:33:41.904Z,8.78
2022-12-23T00:36:22.451Z,8.79
2022-12-23T00:39:07.680Z,8.77
2022-12-23T00:41:53.083Z,8.79
2022-12-23T00:44:19.834Z,8.79
2022-12-23T00:46:47.594Z,8.78
2022-12-23T00:49:34.377Z,8.78
2022-12-23T00:52:01.553Z,8.79
2022-12-23T00:54:28.632Z,8.81
2022-12-23T00:56:55.319Z,8.84
2022-12-23T00:59:21.754Z,8.83
2022-12-23T01:02:07.095Z,8.84
2022-12-23T01:04:52.272Z,8.89
2022-12-23T01:07:21.853Z,8.93
2022-12-23T01:09:51.121Z,8.95
2022-12-23T01:12:17.914Z,8.94
2022-12-23T01:14:46.152Z,8.92
2022-12-23T01:17:14.595Z,8.94
2022-12-23T01:19:41.113Z,8.94
2022-12-23T01:22:07.623Z,8.96
2022-12-23T01:24:34.076Z,8.94
2022-12-23T01:27:00.767Z,8.96
2022-12-23T01:29:28.773Z,8.93
2022-12-23T01:31:55.488Z,8.95
2022-12-23T01:34:26.000Z,8.87
2022-12-23T01:36:54.964Z,8.85
2022-12-23T01:39:24.321Z,8.83
2022-12-23T01:42:09.423Z,8.87
2022-12-23T01:44:48.058Z,8.89
2022-12-23T01:47:33.381Z,8.86
2022-12-23T01:50:08.997Z,8.87
2022-12-23T01:52:44.755Z,8.91
2022-12-23T01:55:14.147Z,8.96
2022-12-23T01:57:43.845Z,8.98
2022-12-23T02:00:30.569Z,8.97
2022-12-23T02:03:15.394Z,8.96
2022-12-23T02:05:44.752Z,9.00
2022-12-23T02:08:29.720Z,8.99
2022-12-23T02:11:19.781Z,8.99
2022-12-23T02:14:19.517Z,8.97
2022-12-23T02:16:55.092Z,8.94
2022-12-23T02:19:39.625Z,8.96
2022-12-23T02:22:30.705Z,8.97
2022-12-23T02:25:26.051Z,8.95
2022-12-23T02:28:28.143Z,8.95
2022-12-23T02:31:20.953Z,8.91
2022-12-23T02:34:01.233Z,8.83
2022-12-23T02:36:47.653Z,8.83
2022-12-23T02:39:30.943Z,8.80
2022-12-23T02:42:10.941Z,8.81
2022-12-23T02:44:47.671Z,8.81
2022-12-23T02:47:22.727Z,8.80
2022-12-23T02:49:54.288Z,8.81
2022-12-23T02:52:24.081Z,8.86
2022-12-23T02:54:55.944Z,8.86
2022-12-23T02:57:28.645Z,8.82
2022-12-23T03:00:00.818Z,8.82
2022-12-23T03:02:27.509Z,8.85
2022-12-23T03:04:54.134Z,8.91
2022-12-23T03:07:46.067Z,8.95
2022-12-23T03:10:42.448Z,8.97
2022-12-23T03:13:31.497Z,8.97
2022-12-23T03:16:22.818Z,9.01
2022-12-23T03:19:10.584Z,9.04
2022-12-23T03:21:52.640Z,8.98
2022-12-23T03:24:27.899Z,8.97
2022-12-23T03:27:01.309Z,8.98
2022-12-23T03:29:50.913Z,8.96
2022-12-23T03:32:18.469Z,8.97
2022-12-23T03:34:48.594Z,9.00
2022-12-23T03:37:19.049Z,9.05
2022-12-23T03:40:11.576Z,9.05
2022-12-23T03:42:42.121Z,9.02
2022-12-23T03:45:40.322Z,9.03
2022-12-23T03:48:29.880Z,9.04
2022-12-23T03:51:02.650Z,9.03
2022-12-23T03:53:34.969Z,9.03
2022-12-23T03:56:07.040Z,9.03
2022-12-23T03:58:36.427Z,9.02
2022-12-23T04:01:12.064Z,9.03
2022-12-23T04:03:50.658Z,9.05
2022-12-23T04:06:20.075Z,9.05
2022-12-23T04:08:48.914Z,9.06
2022-12-23T04:11:15.647Z,9.08
2022-12-23T04:13:42.202Z,9.09
2022-12-23T04:16:11.800Z,9.12
2022-12-23T04:18:38.304Z,9.13
2022-12-23T04:21:04.947Z,9.13
2022-12-23T04:23:31.449Z,9.12
2022-12-23T04:25:57.965Z,9.16
2022-12-23T04:28:24.472Z,9.14
2022-12-23T04:30:50.922Z,9.09
2022-12-23T04:33:17.657Z,9.08
2022-12-23T04:35:44.150Z,9.09
2022-12-23T04:38:10.626Z,9.06
2022-12-23T04:40:37.055Z,9.04
2022-12-23T04:43:03.520Z,9.04
2022-12-23T04:45:30.053Z,9.06
2022-12-23T04:47:56.487Z,9.02
2022-12-23T04:50:23.024Z,9.04
2022-12-23T04:52:49.458Z,9.04
2022-12-23T04:55:15.979Z,9.02
2022-12-23T04:57:42.458Z,9.00
2022-12-23T05:00:09.691Z,9.04
2022-12-23T05:02:36.277Z,9.03
2022-12-23T05:05:03.251Z,9.03
2022-12-23T05:07:30.181Z,9.03
2022-12-23T05:10:01.527Z,9.03
2022-12-23T05:12:31.368Z,9.03
2022-12-23T05:14:57.924Z,9.02
2022-12-23T05:17:24.567Z,9.00
2022-12-23T05:19:51.048Z,8.97
2022-12-23T05:22:17.598Z,8.93
2022-12-23T05:24:44.150Z,8.94
2022-12-23T05:27:10.670Z,8.91
2022-12-23T05:29:37.118Z,8.91
2022-12-23T05:32:03.914Z,8.93
2022-12-23T05:34:33.503Z,8.97
2022-12-23T05:37:00.030Z,8.97
2022-12-23T05:39:26.578Z,8.99
2022-12-23T05:41:53.029Z,9.01
2022-12-23T05:44:19.687Z,8.99
2022-12-23T05:46:49.027Z,8.99
2022-12-23T05:49:15.583Z,8.97
2022-12-23T05:51:45.341Z,8.97
2022-12-23T05:54:11.836Z,9.00
2022-12-23T05:56:38.310Z,9.02
2022-12-23T05:59:04.868Z,9.03
2022-12-23T06:01:31.334Z,9.06
2022-12-23T06:03:57.826Z,9.11
2022-12-23T06:06:24.680Z,9.05
2022-12-23T06:08:57.514Z,9.03
2022-12-23T06:11:25.975Z,9.02
2022-12-23T06:13:52.662Z,8.99
2022-12-23T06:16:19.252Z,8.99
2022-12-23T06:18:45.765Z,9.01
2022-12-23T06:21:12.237Z,9.01
2022-12-23T06:23:38.700Z,9.07
2022-12-23T06:26:05.405Z,9.08
2022-12-23T06:28:31.905Z,9.05
2022-12-23T06:30:58.365Z,9.02
2022-12-23T06:33:24.925Z,9.00
2022-12-23T06:35:51.478Z,9.03
2022-12-23T06:38:17.963Z,9.06
2022-12-23T06:40:44.437Z,9.05
2022-12-23T06:43:13.341Z,9.04
2022-12-23T06:45:40.524Z,9.01
2022-12-23T06:48:07.460Z,9.01
2022-12-23T06:50:37.088Z,9.00
2022-12-23T06:53:03.565Z,8.97
2022-12-23T06:55:30.046Z,8.97
2022-12-23T06:57:56.548Z,8.94
2022-12-23T07:00:23.177Z,8.96
2022-12-23T07:02:49.981Z,8.99
2022-12-23T07:05:17.094Z,8.96
2022-12-23T07:07:43.536Z,8.96
2022-12-23T07:10:10.315Z,8.95
2022-12-23T07:12:37.159Z,8.97
2022-12-23T07:15:04.283Z,9.04
2022-12-23T07:17:31.297Z,9.07
2022-12-23T07:19:57.784Z,9.07
2022-12-23T07:22:24.592Z,9.05
2022-12-23T07:24:51.090Z,9.03
2022-12-23T07:27:17.633Z,9.01
2022-12-23T07:29:44.337Z,8.98
2022-12-23T07:32:11.003Z,8.97
2022-12-23T07:34:37.468Z,9.05
2022-12-23T07:37:04.010Z,9.04
2022-12-23T07:39:30.608Z,9.02
2022-12-23T07:42:25.085Z,8.91
2022-12-23T07:44:43.623Z,8.84
2022-12-23T07:47:10.185Z,8.78
2022-12-23T07:49:36.635Z,8.75
2022-12-23T07:52:03.236Z,8.73
2022-12-23T07:54:29.707Z,8.71
2022-12-23T07:56:58.091Z,8.69
2022-12-23T07:59:27.576Z,8.71
2022-12-23T08:01:54.179Z,8.73
2022-12-23T08:04:20.962Z,8.71
2022-12-23T08:06:47.524Z,8.68
2022-12-23T08:09:14.168Z,8.68
2022-12-23T08:11:40.671Z,8.65
2022-12-23T08:14:07.615Z,8.64
2022-12-23T08:16:39.577Z,8.65
2022-12-23T08:19:12.999Z,8.63
2022-12-23T08:21:39.449Z,8.63
2022-12-23T08:24:09.098Z,8.64
2022-12-23T08:26:35.629Z,8.63
2022-12-23T08:29:02.992Z,8.64
2022-12-23T08:31:33.340Z,8.66
2022-12-23T08:34:01.274Z,8.67
2022-12-23T08:36:30.731Z,8.65
2022-12-23T08:39:03.045Z,8.64
2022-12-23T08:41:32.489Z,8.63
2022-12-23T08:43:59.560Z,8.66
2022-12-23T08:46:26.733Z,8.64
2022-12-23T08:48:53.971Z,8.62
2022-12-23T08:51:22.020Z,8.60
2022-12-23T08:53:48.806Z,8.61
2022-12-23T08:56:19.417Z,8.59
2022-12-23T08:58:47.454Z,8.57
2022-12-23T09:01:17.146Z,8.56
2022-12-23T09:03:44.604Z,8.53
2022-12-23T09:06:23.181Z,8.54
2022-12-23T09:08:53.857Z,8.54
2022-12-23T09:11:24.547Z,8.51
2022-12-23T09:13:54.325Z,8.52
2022-12-23T09:16:21.807Z,8.49
2022-12-23T09:18:48.343Z,8.51
2022-12-23T09:21:18.101Z,8.52
2022-12-23T09:23:44.653Z,8.52
2022-12-23T09:26:16.613Z,8.48
2022-12-23T09:28:43.027Z,8.48
2022-12-23T09:31:11.830Z,8.49
2022-12-23T09:33:39.129Z,8.49
2022-12-23T09:36:06.646Z,8.48
2022-12-23T09:38:35.183Z,8.47
2022-12-23T09:41:22.931Z,8.45
2022-12-23T09:43:58.340Z,8.46
2022-12-23T09:46:28.784Z,8.47
2022-12-23T09:49:11.462Z,8.47
2022-12-23T09:51:38.381Z,8.45
2022-12-23T09:54:17.139Z,8.43
2022-12-23T09:56:51.333Z,8.45
2022-12-23T09:59:42.845Z,8.43
2022-12-23T10:02:46.994Z,8.42
2022-12-23T10:05:40.101Z,8.43
2022-12-23T10:08:22.089Z,8.47
2022-12-23T10:10:54.152Z,8.48
2022-12-23T10:13:41.169Z,8.49
2022-12-23T10:16:14.763Z,8.47
2022-12-23T10:18:53.374Z,8.49
2022-12-23T10:21:26.301Z,8.52
2022-12-23T10:23:55.738Z,8.61
2022-12-23T10:26:22.570Z,8.68
2022-12-23T10:28:50.948Z,8.67
2022-12-23T10:31:39.994Z,8.67
2022-12-23T10:34:22.665Z,8.67
2022-12-23T10:37:05.997Z,8.67
2022-12-23T10:39:43.009Z,8.66
2022-12-23T10:42:25.317Z,8.67
2022-12-23T10:45:00.992Z,8.71
2022-12-23T10:47:47.239Z,8.71
2022-12-23T10:50:34.577Z,8.72
2022-12-23T10:53:04.759Z,8.70
2022-12-23T10:55:35.768Z,8.67
2022-12-23T10:58:08.672Z,8.65
2022-12-23T11:00:38.860Z,8.68
2022-12-23T11:03:20.682Z,8.71
2022-12-23T11:05:50.167Z,8.73
2022-12-23T11:08:17.359Z,8.71
2022-12-23T11:10:44.865Z,8.75
2022-12-23T11:13:23.362Z,8.78
2022-12-23T11:15:49.952Z,8.77
2022-12-23T11:18:19.544Z,8.81
2022-12-23T11:21:02.303Z,8.81
2022-12-23T11:23:31.349Z,8.84
2022-12-23T11:26:06.100Z,8.89
2022-12-23T11:28:35.340Z,8.93
2022-12-23T11:31:09.703Z,8.99
2022-12-23T11:33:40.288Z,8.97
2022-12-23T11:36:14.242Z,8.97
2022-12-23T11:39:02.104Z,9.01
2022-12-23T11:41:35.443Z,9.00
2022-12-23T11:44:07.390Z,9.02
2022-12-23T11:46:34.472Z,9.02
2022-12-23T11:49:24.524Z,9.00
2022-12-23T11:52:17.234Z,9.04
2022-12-23T11:54:54.576Z,9.07
2022-12-23T11:57:38.429Z,9.03
2022-12-23T12:00:07.966Z,9.05
2022-12-23T12:02:42.930Z,9.07
2022-12-23T12:05:15.515Z,9.06
2022-12-23T12:07:46.156Z,9.07
2022-12-23T12:10:30.460Z,9.06
2022-12-23T12:13:01.433Z,9.04
2022-12-23T12:15:40.831Z,9.03
2022-12-23T12:18:11.500Z,9.06
2022-12-23T12:21:00.942Z,9.05
2022-12-23T12:23:46.052Z,9.04
2022-12-23T12:26:15.601Z,9.02
2022-12-23T12:28:44.964Z,9.03
2022-12-23T12:31:35.810Z,9.01
2022-12-23T12:34:02.203Z,9.02
2022-12-23T12:36:39.656Z,9.02
2022-12-23T12:39:15.677Z,9.00
2022-12-23T12:42:01.819Z,9.01
2022-12-23T12:44:47.991Z,9.01
2022-12-23T12:47:52.149Z,8.99
2022-12-23T12:50:25.111Z,8.98
2022-12-23T12:52:56.689Z,8.97
2022-12-23T12:55:29.700Z,8.94
2022-12-23T12:57:56.288Z,8.92
2022-12-23T13:00:23.888Z,8.93
2022-12-23T13:02:52.212Z,8.88
2022-12-23T13:05:54.795Z,8.89
2022-12-23T13:08:56.398Z,8.89
2022-12-23T13:11:48.175Z,8.86
2022-12-23T13:14:41.277Z,8.87
2022-12-23T13:17:23.055Z,8.90
2022-12-23T13:20:17.458Z,8.91
2022-12-23T13:22:50.360Z,8.91
2022-12-23T13:25:25.037Z,8.89
2022-12-23T13:27:58.251Z,8.86
2022-12-23T13:30:32.526Z,8.82
2022-12-23T13:33:14.378Z,8.70
2022-12-23T13:36:05.033Z,8.61
2022-12-23T13:39:04.812Z,8.48
2022-12-23T13:41:39.494Z,8.42
2022-12-23T13:44:09.613Z,8.35
2022-12-23T13:46:57.963Z,8.31
2022-12-23T13:50:03.490Z,8.31
2022-12-23T13:52:47.613Z,8.31
2022-12-23T13:55:23.831Z,8.29
2022-12-23T13:58:05.939Z,8.26
2022-12-23T14:00:33.407Z,8.24
2022-12-23T14:03:02.756Z,8.15
2022-12-23T14:05:45.293Z,8.12
2022-12-23T14:08:26.820Z,8.13
2022-12-23T14:11:11.794Z,8.18
2022-12-23T14:13:44.213Z,8.18
2022-12-23T14:16:19.545Z,8.16
2022-12-23T14:19:18.530Z,8.16
2022-12-23T14:21:48.433Z,8.15
2022-12-23T14:24:30.146Z,8.16
2022-12-23T14:27:02.528Z,8.16
2022-12-23T14:29:49.221Z,8.14
2022-12-23T14:32:23.984Z,8.14
2022-12-23T14:35:22.070Z,8.15
2022-12-23T14:38:10.511Z,8.15
2022-12-23T14:40:36.932Z,8.14
2022-12-23T14:43:21.950Z,8.11
2022-12-23T14:45:54.716Z,8.08
2022-12-23T14:48:33.401Z,8.10
2022-12-23T14:51:09.146Z,8.12
2022-12-23T14:53:53.952Z,8.08
2022-12-23T14:56:38.751Z,8.08
2022-12-23T14:59:11.190Z,8.08
2022-12-23T15:01:46.451Z,8.12
2022-12-23T15:04:12.923Z,8.13
2022-12-23T15:06:53.433Z,8.09
2022-12-23T15:09:31.816Z,8.08
2022-12-23T15:12:06.451Z,8.07
2022-12-23T15:14:38.236Z,8.05
2022-12-23T15:17:33.104Z,8.06
2022-12-23T15:20:12.547Z,8.07
2022-12-23T15:22:44.599Z,8.04
2022-12-23T15:25:35.846Z,8.04
2022-12-23T15:28:03.852Z,8.07
2022-12-23T15:30:36.238Z,8.06
2022-12-23T15:33:27.816Z,8.05
2022-12-23T15:35:56.964Z,7.99
2022-12-23T15:38:30.593Z,7.99
2022-12-23T15:41:14.898Z,7.99
2022-12-23T15:43:42.660Z,7.96
2022-12-23T15:46:28.540Z,7.95
2022-12-23T15:48:56.712Z,7.91
2022-12-23T15:54:31.454Z,7.92
2022-12-23T15:56:59.554Z,7.92
2022-12-23T15:59:33.626Z,7.88
2022-12-23T16:05:07.831Z,7.92
2022-12-23T16:07:37.572Z,7.91
2022-12-23T16:10:14.094Z,7.87
2022-12-23T16:12:41.317Z,7.87
2022-12-23T16:15:20.415Z,7.90
2022-12-23T16:17:47.082Z,7.88
2022-12-23T16:20:25.263Z,7.86
2022-12-23T16:22:54.284Z,7.83
2022-12-23T16:25:27.587Z,7.86
2022-12-23T16:28:06.246Z,7.87
2022-12-23T16:30:38.354Z,7.88
2022-12-23T16:33:30.950Z,7.89
2022-12-23T16:36:26.327Z,7.88
2022-12-23T16:38:56.340Z,7.87
2022-12-23T16:41:22.994Z,7.89
2022-12-23T16:43:52.470Z,7.89
2022-12-23T16:46:22.949Z,7.87
2022-12-23T16:48:55.948Z,7.89
2022-12-23T16:51:23.549Z,7.94
2022-12-23T16:53:52.441Z,7.88
2022-12-23T16:56:21.680Z,7.85
2022-12-23T16:58:48.143Z,7.83
2022-12-23T17:01:24.306Z,7.82
2022-12-23T17:03:51.497Z,7.82
2022-12-23T17:06:18.907Z,7.83
2022-12-23T17:08:45.434Z,7.81
2022-12-23T17:11:22.981Z,7.80
2022-12-23T17:13:49.964Z,7.77
2022-12-23T17:16:20.136Z,7.77
2022-12-23T17:18:51.259Z,7.78
2022-12-23T17:21:24.361Z,7.77
2022-12-23T17:23:53.197Z,7.75
2022-12-23T17:26:19.844Z,7.77
2022-12-23T17:28:46.309Z,7.82
2022-12-23T17:31:15.501Z,7.76
2022-12-23T17:33:42.788Z,7.72
2022-12-23T17:36:11.109Z,7.71
2022-12-23T17:38:37.834Z,7.73
2022-12-23T17:41:04.676Z,7.68
2022-12-23T17:43:31.338Z,7.68
2022-12-23T17:45:57.935Z,7.68
2022-12-23T17:48:31.080Z,7.69
2022-12-23T17:50:58.380Z,7.67
2022-12-23T17:53:24.869Z,7.69
2022-12-23T17:55:54.250Z,7.70
2022-12-23T17:58:20.710Z,7.72
2022-12-23T18:00:47.265Z,7.73
2022-12-23T18:03:23.327Z,7.75
2022-12-23T18:05:53.000Z,7.75
2022-12-23T18:08:23.843Z,7.73
2022-12-23T18:10:50.408Z,7.72
2022-12-23T18:13:19.427Z,7.69
2022-12-23T18:15:46.799Z,7.69
2022-12-23T18:18:24.110Z,7.70
2022-12-23T18:20:56.295Z,7.70
2022-12-23T18:23:25.619Z,7.70
2022-12-23T18:25:52.674Z,7.72
2022-12-23T18:28:19.221Z,7.77
2022-12-23T18:30:45.989Z,7.77
2022-12-23T18:33:13.318Z,7.76
2022-12-23T18:35:45.796Z,7.68
2022-12-23T18:38:12.970Z,7.69
2022-12-23T18:40:40.434Z,7.70
2022-12-23T18:43:07.397Z,7.70
2022-12-23T18:45:37.991Z,7.66
2022-12-23T18:48:07.222Z,7.62
2022-12-23T18:50:35.582Z,7.59
2022-12-23T18:53:03.148Z,7.66
2022-12-23T18:55:30.348Z,7.65
2022-12-23T18:57:58.472Z,7.62
2022-12-23T19:00:28.064Z,7.66
2022-12-23T19:02:55.509Z,7.73
2022-12-23T19:05:26.573Z,7.78
2022-12-23T19:07:55.367Z,7.79
2022-12-23T19:10:30.039Z,7.84
2022-12-23T19:12:56.544Z,7.83
2022-12-23T19:15:23.759Z,7.80
2022-12-23T19:17:53.309Z,7.75
2022-12-23T19:20:20.411Z,7.71
2022-12-23T19:22:48.123Z,7.75
2022-12-23T19:25:17.920Z,7.82
2022-12-23T19:27:45.355Z,7.86
2022-12-23T19:30:17.184Z,7.81
2022-12-23T19:32:44.903Z,7.72
2022-12-23T19:35:14.831Z,7.65
2022-12-23T19:37:42.212Z,7.60
2022-12-23T19:40:10.474Z,7.56
2022-12-23T19:42:40.508Z,7.63
2022-12-23T19:45:09.018Z,7.65
2022-12-23T19:47:36.160Z,7.59
2022-12-23T19:50:03.176Z,7.57
2022-12-23T19:52:30.001Z,7.59
2022-12-23T19:54:56.510Z,7.56
2022-12-23T19:57:24.493Z,7.59
2022-12-23T19:59:50.992Z,7.59
2022-12-23T20:02:18.088Z,7.59
2022-12-23T20:04:44.590Z,7.58
2022-12-23T20:07:11.141Z,7.59
2022-12-23T20:09:38.300Z,7.59
2022-12-23T20:12:07.952Z,7.53
2022-12-23T20:14:34.685Z,7.59
2022-12-23T20:17:01.392Z,7.61
2022-12-23T20:19:28.039Z,7.69
2022-12-23T20:21:54.549Z,7.68
2022-12-23T20:24:21.036Z,7.70
2022-12-23T20:26:47.883Z,7.72
2022-12-23T20:29:17.998Z,7.74
2022-12-23T20:31:44.571Z,7.77
2022-12-23T20:34:15.316Z,7.81
2022-12-23T20:36:41.819Z,7.75
2022-12-23T20:39:08.465Z,7.74
2022-12-23T20:41:34.946Z,7.87
2022-12-23T20:46:48.229Z,8.71
2022-12-23T20:49:14.792Z,8.95
2022-12-23T20:51:41.280Z,9.11
2022-12-23T20:54:08.042Z,9.10
2022-12-23T20:56:34.567Z,9.18
2022-12-23T20:59:03.759Z,9.23
2022-12-23T21:01:35.770Z,9.24
2022-12-23T21:04:07.485Z,9.25
2022-12-23T21:06:35.733Z,9.20
2022-12-23T21:09:04.847Z,9.34
2022-12-23T21:11:34.544Z,9.41
2022-12-23T21:14:06.166Z,9.41
2022-12-23T21:16:35.428Z,9.43
2022-12-23T21:19:02.230Z,9.39
2022-12-23T21:21:32.785Z,9.38
2022-12-23T21:24:02.170Z,9.42
2022-12-23T21:26:30.245Z,9.40
2022-12-23T21:29:01.218Z,9.44
2022-12-23T21:31:29.517Z,9.55
2022-12-23T21:33:56.270Z,9.53
2022-12-23T21:36:26.280Z,9.53
2022-12-23T21:38:53.279Z,9.50
2022-12-23T21:41:28.349Z,9.58
2022-12-23T21:43:56.789Z,9.56
2022-12-23T21:46:24.699Z,9.53
2022-12-23T21:48:55.819Z,9.44
2022-12-23T21:51:38.897Z,9.52
2022-12-23T21:54:07.275Z,9.53
2022-12-23T21:56:36.676Z,9.49
2022-12-23T21:59:06.372Z,9.49
2022-12-23T22:01:33.655Z,9.55
2022-12-23T22:04:00.346Z,9.63
2022-12-23T22:06:32.865Z,9.67
2022-12-23T22:08:59.786Z,9.62
2022-12-23T22:11:28.819Z,9.57
2022-12-23T22:13:59.968Z,9.55
2022-12-23T22:16:31.291Z,9.55
2022-12-23T22:18:59.315Z,9.56
2022-12-23T22:21:28.621Z,9.56
2022-12-23T22:23:56.557Z,9.54
2022-12-23T22:26:26.509Z,9.59
2022-12-23T22:28:57.874Z,9.55
2022-12-23T22:31:39.924Z,9.55
2022-12-23T22:34:07.687Z,9.55
2022-12-23T22:36:34.297Z,9.52
2022-12-23T22:39:07.573Z,9.52
2022-12-23T22:41:34.997Z,9.53
2022-12-23T22:44:01.467Z,9.49
2022-12-23T22:46:28.317Z,9.44
2022-12-23T22:48:55.241Z,9.43
2022-12-23T22:51:27.603Z,9.36
2022-12-23T22:53:55.476Z,9.40
2022-12-23T22:56:23.932Z,9.47
2022-12-23T22:58:53.913Z,9.43
2022-12-23T23:01:32.605Z,9.45
2022-12-23T23:04:01.548Z,9.44
2022-12-23T23:06:44.211Z,9.40
2022-12-23T23:09:19.601Z,9.54
2022-12-23T23:11:46.112Z,9.52
2022-12-23T23:14:13.168Z,9.44
2022-12-23T23:16:39.878Z,9.40
2022-12-23T23:19:10.139Z,9.38
2022-12-23T23:21:37.726Z,9.36
2022-12-23T23:24:05.334Z,9.36
2022-12-23T23:26:32.480Z,9.41
2022-12-23T23:28:58.930Z,9.45
2022-12-23T23:31:41.922Z,9.46
2022-12-23T23:34:09.191Z,9.59
2022-12-23T23:36:35.756Z,9.57
2022-12-23T23:39:02.276Z,9.50
2022-12-23T23:41:30.849Z,9.45
2022-12-23T23:44:03.901Z,9.38
2022-12-23T23:46:31.822Z,9.41
2022-12-23T23:48:58.660Z,9.44
2022-12-23T23:51:25.201Z,9.43
2022-12-23T23:53:51.741Z,9.40
2022-12-23T23:56:24.783Z,9.45
2022-12-23T23:58:55.226Z,9.38
